Time;durP1;ratioP1;P1;durP2;ratioP2;P2;SDS_P1;SDS_P2;PMS_P1;PMS_P2;Temp;Humidity;BMP_temperature;BMP_pressure;BME280_temperature;BME280_humidity;BME280_pressure;Samples;Min_cycle;Max_cycle;Signal;HPM_P1;HPM_P2
2022/03/31 04:09:40;;;;;;;44.42;18.75;;;;;;;12.58;51.50;99916.00;5102064;27;20412;-85
2022/03/31 04:12:06;;;;;;;38.40;19.15;;;;;;;12.57;52.08;99903.16;5104009;28;20050;-84
2022/03/31 04:14:31;;;;;;;45.00;20.33;;;;;;;12.61;51.84;99902.03;5103250;28;20031;-87
2022/03/31 04:16:57;;;;;;;39.17;19.35;;;;;;;12.79;52.20;99915.50;5101112;28;20028;-85
2022/03/31 04:19:22;;;;;;;39.40;18.05;;;;;;;12.89;51.18;99917.34;5082062;28;20458;-86
2022/03/31 04:21:48;;;;;;;36.45;18.67;;;;;;;12.99;51.29;99907.16;5097621;28;20126;-82
2022/03/31 04:24:13;;;;;;;39.15;18.45;;;;;;;13.11;51.16;99908.88;5064270;28;20043;-81
2022/03/31 04:26:39;;;;;;;30.70;14.13;;;;;;;13.19;50.68;99913.56;5082511;28;20055;-82
2022/03/31 04:29:08;;;;;;;32.80;12.60;;;;;;;13.19;50.67;99908.38;5082082;28;20036;-82
2022/03/31 04:31:40;;;;;;;30.02;12.98;;;;;;;13.25;50.91;99917.47;5086299;28;20039;-80
2022/03/31 04:34:08;;;;;;;25.10;11.82;;;;;;;13.21;50.49;99911.69;5086548;28;20494;-85
2022/03/31 04:36:33;;;;;;;27.23;12.32;;;;;;;13.11;50.30;99885.50;5102073;28;20158;-86
2022/03/31 04:38:59;;;;;;;29.15;11.90;;;;;;;13.24;50.25;99889.84;5081089;28;21096;-82
2022/03/31 04:41:25;;;;;;;27.95;11.32;;;;;;;13.39;50.25;99906.94;5092996;28;20609;-82
2022/03/31 04:43:51;;;;;;;27.85;11.10;;;;;;;13.42;49.62;99902.34;5098728;28;20028;-86
2022/03/31 04:46:18;;;;;;;57.47;13.18;;;;;;;13.42;49.89;99894.56;5100237;28;20036;-84
2022/03/31 04:48:44;;;;;;;29.08;11.85;;;;;;;13.50;50.00;99904.41;5090911;28;20123;-84
2022/03/31 04:51:09;;;;;;;28.02;11.57;;;;;;;13.42;50.12;99883.34;5087951;28;20103;-87
2022/03/31 04:53:35;;;;;;;38.05;13.18;;;;;;;13.58;50.71;99909.88;5085144;28;20049;-81
2022/03/31 04:56:00;;;;;;;30.58;12.25;;;;;;;13.58;50.06;99903.84;5100149;28;20032;-82
2022/03/31 04:58:26;;;;;;;96.38;16.17;;;;;;;13.58;49.53;99903.84;5084879;28;20039;-83
2022/03/31 05:00:51;;;;;;;42.00;14.60;;;;;;;13.67;49.14;99898.00;5075909;28;20063;-84
2022/03/31 05:03:17;;;;;;;30.10;12.68;;;;;;;13.67;49.27;99898.00;5093419;28;20043;-82
2022/03/31 05:05:42;;;;;;;38.35;13.25;;;;;;;13.46;49.17;99856.19;5093826;28;20499;-85
2022/03/31 05:08:08;;;;;;;35.72;13.50;;;;;;;13.67;49.45;99892.78;5095797;28;20584;-88
2022/03/31 05:10:34;;;;;;;40.65;13.23;;;;;;;13.72;49.46;99896.69;5080978;28;20036;-85
2022/03/31 05:13:00;;;;;;;29.20;12.40;;;;;;;13.75;49.42;99900.81;5099983;28;20431;-86
2022/03/31 05:15:25;;;;;;;33.72;13.55;;;;;;;13.75;49.32;99891.25;5079289;28;20036;-88
2022/03/31 05:17:51;;;;;;;26.48;12.50;;;;;;;13.85;49.16;99882.78;5075165;28;20069;-84
2022/03/31 05:20:16;;;;;;;31.75;12.57;;;;;;;13.91;48.71;99883.16;5081216;28;20024;-85
2022/03/31 05:22:42;;;;;;;30.50;12.75;;;;;;;14.01;48.55;99868.53;5082276;28;20055;-81
2022/03/31 05:25:08;;;;;;;38.50;15.88;;;;;;;14.02;49.04;99862.38;5083650;28;20137;-83
2022/03/31 05:27:39;;;;;;;45.22;14.45;;;;;;;14.10;48.84;99850.59;5069742;28;20043;-82
2022/03/31 05:30:06;;;;;;;34.97;13.98;;;;;;;14.10;49.34;99846.19;5086165;28;20636;-84
2022/03/31 05:32:32;;;;;;;28.42;11.93;;;;;;;14.15;50.93;99851.03;5087931;28;20119;-84
2022/03/31 05:34:57;;;;;;;26.75;10.63;;;;;;;14.33;50.02;99850.47;5068699;28;20420;-83
2022/03/31 05:37:23;;;;;;;25.98;10.63;;;;;;;14.76;48.74;99869.81;5085124;28;20039;-84
2022/03/31 05:39:49;;;;;;;26.60;10.93;;;;;;;16.42;45.25;99844.88;5063118;28;20028;-86
2022/03/31 05:42:15;;;;;;;38.78;16.60;;;;;;;16.26;44.15;99846.19;5066025;28;20028;-86
2022/03/31 05:44:40;;;;;;;37.45;14.30;;;;;;;15.96;44.03;99874.88;5063961;28;20079;-89
2022/03/31 05:47:06;;;;;;;35.40;17.20;;;;;;;15.62;45.33;99887.22;5052639;28;20047;-87
2022/03/31 05:49:31;;;;;;;40.58;14.90;;;;;;;15.32;46.51;99883.50;5077249;28;20027;-81
2022/03/31 05:51:57;;;;;;;32.03;14.27;;;;;;;15.12;47.14;99885.09;5083972;28;20713;-83
2022/03/31 05:54:22;;;;;;;26.45;12.18;;;;;;;15.25;45.64;99897.19;5054420;28;20055;-81
2022/03/31 05:56:48;;;;;;;30.73;13.10;;;;;;;15.10;45.75;99880.97;5075852;28;20421;-85
2022/03/31 05:59:15;;;;;;;37.50;13.93;;;;;;;15.07;46.84;99881.22;5094501;28;20051;-85
2022/03/31 06:01:41;;;;;;;33.03;13.80;;;;;;;14.95;46.32;99870.00;5062600;28;20028;-81
2022/03/31 06:04:06;;;;;;;39.10;16.48;;;;;;;14.87;46.12;99880.19;5068519;28;20039;-84
2022/03/31 06:06:32;;;;;;;42.17;17.10;;;;;;;14.80;46.85;99879.00;5085495;28;20089;-83
2022/03/31 06:08:58;;;;;;;39.10;14.63;;;;;;;14.84;46.93;99886.44;5087274;28;20056;-83
2022/03/31 06:11:24;;;;;;;40.20;15.05;;;;;;;14.78;46.59;99891.31;5078166;28;20074;-85
2022/03/31 06:13:49;;;;;;;32.63;14.77;;;;;;;14.79;46.44;99898.19;5077936;28;20043;-84
2022/03/31 06:16:15;;;;;;;34.30;14.90;;;;;;;14.82;46.47;99897.94;5050329;28;20029;-84
2022/03/31 06:18:40;;;;;;;40.25;16.02;;;;;;;14.91;46.29;99902.44;5075909;28;20036;-84
2022/03/31 06:21:06;;;;;;;39.38;14.95;;;;;;;14.90;46.46;99917.22;5071727;28;20163;-85
2022/03/31 06:23:31;;;;;;;44.90;16.42;;;;;;;14.67;47.07;99896.53;5079049;28;20036;-93
2022/03/31 06:25:57;;;;;;;38.85;16.10;;;;;;;14.45;48.19;99897.34;5056412;28;20110;-89
2022/03/31 06:28:24;;;;;;;34.00;12.65;;;;;;;14.66;48.13;99931.34;5087825;28;20082;-85
2022/03/31 06:30:50;;;;;;;33.00;12.05;;;;;;;14.73;48.61;99940.31;5068810;28;20108;-86
2022/03/31 06:33:16;;;;;;;33.72;11.30;;;;;;;14.70;48.74;99948.38;5064839;28;20032;-85
2022/03/31 06:35:41;;;;;;;24.90;10.90;;;;;;;14.56;49.53;99942.44;5083685;28;20833;-90
2022/03/31 06:38:07;;;;;;;85.50;50.97;;;;;;;14.50;50.14;99948.13;5086600;28;20074;-93
2022/03/31 06:40:37;;;;;;;83.28;49.10;;;;;;;14.58;50.80;99943.16;5068583;28;20032;-88
2022/03/31 06:43:03;;;;;;;24.15;10.43;;;;;;;14.59;50.16;99950.00;5085180;28;20057;-84
2022/03/31 06:45:28;;;;;;;25.55;9.88;;;;;;;14.48;49.70;99937.00;5069416;28;20024;-86
2022/03/31 06:47:55;;;;;;;25.98;10.85;;;;;;;14.53;50.86;99953.06;5085266;28;20031;-88
2022/03/31 06:50:20;;;;;;;28.30;11.10;;;;;;;14.52;51.09;99948.00;5055146;28;20028;-87
2022/03/31 06:52:45;;;;;;;52.83;30.17;;;;;;;14.48;52.81;99942.19;5066347;28;20035;-82
2022/03/31 06:55:11;;;;;;;44.10;21.13;;;;;;;14.44;54.66;99940.72;5082802;28;20039;-84
2022/03/31 06:57:37;;;;;;;27.00;12.65;;;;;;;14.47;51.02;99934.50;5061656;28;20043;-86
2022/03/31 07:00:04;;;;;;;26.95;11.38;;;;;;;14.46;52.82;99943.28;5079223;28;20024;-82
2022/03/31 07:02:30;;;;;;;30.77;11.45;;;;;;;14.29;55.74;99941.91;5051292;28;20564;-86
2022/03/31 07:04:56;;;;;;;34.95;11.02;;;;;;;14.35;56.99;99957.03;5084395;28;20035;-81
2022/03/31 07:07:21;;;;;;;29.65;11.95;;;;;;;14.19;55.57;99926.16;5079408;28;20035;-86
2022/03/31 07:09:47;;;;;;;33.10;14.05;;;;;;;14.21;55.92;99962.44;5068386;28;20085;-90
2022/03/31 07:12:12;;;;;;;32.20;14.18;;;;;;;14.14;54.80;99950.84;5077791;28;20044;-86
2022/03/31 07:14:38;;;;;;;24.58;13.27;;;;;;;14.18;55.05;99955.72;5072104;28;20032;-86
2022/03/31 07:17:04;;;;;;;29.48;11.75;;;;;;;13.98;55.38;99928.59;5084805;28;20040;-83
2022/03/31 07:19:30;;;;;;;29.35;11.65;;;;;;;14.35;55.56;99960.50;5065374;28;20418;-89
2022/03/31 07:21:55;;;;;;;36.22;12.98;;;;;;;14.37;55.94;99960.38;5048501;28;20033;-88
2022/03/31 07:24:21;;;;;;;25.30;11.18;;;;;;;14.33;55.51;99944.13;5048040;28;20052;-86
2022/03/31 07:26:47;;;;;;;26.52;10.20;;;;;;;14.44;55.14;99955.50;5061319;28;20052;-91
2022/03/31 07:29:12;;;;;;;30.02;11.05;;;;;;;14.62;55.78;99972.38;5070513;28;20067;-86
2022/03/31 07:31:38;;;;;;;26.48;14.13;;;;;;;14.38;54.01;99938.59;5069140;28;20040;-87
2022/03/31 07:34:03;;;;;;;40.05;20.33;;;;;;;14.49;54.66;99954.25;5081774;28;20702;-90
2022/03/31 07:36:29;;;;;;;27.77;14.63;;;;;;;14.59;56.33;99983.03;5057798;28;20093;-85
2022/03/31 07:38:54;;;;;;;34.03;14.60;;;;;;;14.39;57.29;99957.66;5068007;28;20047;-83
2022/03/31 07:41:20;;;;;;;31.60;13.23;;;;;;;14.46;57.73;99959.72;5086008;28;20481;-87
2022/03/31 07:43:45;;;;;;;29.42;13.07;;;;;;;14.57;56.10;99983.16;5088649;28;20382;-84
2022/03/31 07:46:11;;;;;;;29.65;12.93;;;;;;;14.54;57.48;99987.75;5068370;28;20059;-87
2022/03/31 07:48:37;;;;;;;27.02;13.85;;;;;;;14.49;58.49;99977.69;5065067;28;20105;-91
2022/03/31 07:51:02;;;;;;;31.20;14.18;;;;;;;14.47;59.26;99956.16;5052854;28;20139;-84
2022/03/31 07:53:32;;;;;;;38.90;19.15;;;;;;;14.41;60.96;99951.38;5082977;28;20032;-84
2022/03/31 07:56:05;;;;;;;34.70;17.48;;;;;;;14.37;62.26;99955.16;5072434;28;20062;-88
2022/03/31 07:58:30;;;;;;;38.67;17.38;;;;;;;14.16;62.74;99941.13;5066510;28;20024;-87
2022/03/31 08:00:56;;;;;;;40.33;18.42;;;;;;;14.05;62.95;99911.56;5075074;28;20040;-87
2022/03/31 08:03:24;;;;;;;36.70;18.33;;;;;;;14.17;63.17;99930.66;5059529;28;20020;-87
2022/03/31 08:05:50;;;;;;;35.13;18.60;;;;;;;14.09;63.50;99895.75;5070955;28;20028;-84
2022/03/31 08:08:16;;;;;;;34.80;18.00;;;;;;;14.20;64.59;99916.56;5076780;28;20477;-86
2022/03/31 08:10:44;;;;;;;34.88;17.48;;;;;;;14.33;63.48;99904.28;5078269;28;20039;-95
2022/03/31 08:13:10;;;;;;;35.08;17.42;;;;;;;14.37;62.85;99899.69;5054612;28;20062;-85
2022/03/31 08:15:37;;;;;;;32.75;17.05;;;;;;;14.47;63.41;99905.88;5043399;28;20044;-83
2022/03/31 08:18:02;;;;;;;39.80;18.15;;;;;;;14.56;62.51;99911.22;5071824;28;20032;-84
2022/03/31 08:20:28;;;;;;;36.00;17.50;;;;;;;14.71;61.06;99910.97;5053982;28;20386;-83
2022/03/31 08:22:54;;;;;;;33.15;17.05;;;;;;;14.73;60.42;99888.25;5071360;28;20043;-83
2022/03/31 08:25:20;;;;;;;141.77;94.22;;;;;;;15.00;60.61;99886.09;5057504;28;20036;-83
2022/03/31 08:27:46;;;;;;;36.78;18.83;;;;;;;15.29;60.05;99909.00;5067293;28;20029;-83
2022/03/31 08:30:13;;;;;;;64.00;39.72;;;;;;;15.41;60.72;99916.66;5068107;28;20062;-81
2022/03/31 08:32:42;;;;;;;32.60;17.08;;;;;;;15.37;59.48;99877.94;5059485;28;20107;-84
2022/03/31 08:35:11;;;;;;;33.13;16.10;;;;;;;15.71;57.85;99916.00;5076479;28;20032;-87
2022/03/31 08:37:37;;;;;;;30.98;13.50;;;;;;;15.75;57.99;99911.38;5068925;28;20077;-84
2022/03/31 08:40:03;;;;;;;30.80;13.75;;;;;;;15.78;58.09;99908.50;5065982;28;20025;-83
2022/03/31 08:42:30;;;;;;;27.13;13.70;;;;;;;15.86;57.29;99900.06;5059480;28;20068;-85
2022/03/31 08:44:56;;;;;;;27.80;13.00;;;;;;;15.95;57.11;99899.31;5048219;28;20033;-85
2022/03/31 08:47:22;;;;;;;28.40;13.10;;;;;;;16.09;57.13;99887.72;5066906;28;20036;-85
2022/03/31 08:49:47;;;;;;;31.20;14.40;;;;;;;16.11;57.09;99884.00;5080495;28;20027;-82
2022/03/31 08:52:13;;;;;;;25.58;13.65;;;;;;;16.22;57.10;99877.88;5088465;28;20032;-88
2022/03/31 08:54:39;;;;;;;33.53;14.25;;;;;;;16.40;55.87;99889.38;5087396;28;20031;-87
2022/03/31 08:57:05;;;;;;;31.08;13.98;;;;;;;16.40;56.60;99870.28;5070304;28;20032;-89
2022/03/31 08:59:31;;;;;;;27.33;13.80;;;;;;;16.47;55.67;99864.41;5050153;28;20024;-85
2022/03/31 09:01:57;;;;;;;25.63;13.68;;;;;;;16.61;56.19;99865.84;5069329;28;20046;-84
2022/03/31 09:04:23;;;;;;;28.05;12.32;;;;;;;16.69;55.12;99855.59;5073944;28;20621;-82
2022/03/31 09:07:00;;;;;;;27.25;12.20;;;;;;;16.85;55.29;99871.59;5071828;28;20024;-85
2022/03/31 09:09:25;;;;;;;26.58;11.80;;;;;;;16.90;53.65;99856.34;5076448;28;20082;-84
2022/03/31 09:11:51;;;;;;;25.65;12.35;;;;;;;16.86;55.19;99841.06;5041656;28;20027;-87
2022/03/31 09:14:27;;;;;;;23.38;11.85;;;;;;;17.02;54.33;99835.34;5073412;28;20459;-87
2022/03/31 09:16:53;;;;;;;28.92;12.15;;;;;;;17.27;54.04;99852.28;5074862;28;20020;-84
2022/03/31 09:19:18;;;;;;;30.27;12.10;;;;;;;17.49;53.80;99852.00;5090850;28;20173;-84
2022/03/31 09:21:54;;;;;;;23.95;11.73;;;;;;;17.44;52.86;99844.59;5089442;28;20035;-85
2022/03/31 09:24:22;;;;;;;30.23;11.85;;;;;;;17.49;52.84;99831.91;5089025;28;20433;-85
2022/03/31 09:26:49;;;;;;;21.00;11.60;;;;;;;17.45;53.62;99812.25;5069033;28;20115;-85
2022/03/31 09:29:15;;;;;;;27.48;11.75;;;;;;;17.66;52.69;99826.94;5053847;28;20047;-82
2022/03/31 09:31:41;;;;;;;25.90;11.18;;;;;;;17.84;53.17;99835.75;5069318;28;20115;-87
2022/03/31 09:34:08;;;;;;;22.25;11.35;;;;;;;17.91;52.28;99836.03;5052691;28;20032;-82
2022/03/31 09:36:33;;;;;;;29.35;12.13;;;;;;;17.81;51.93;99803.84;5085712;28;20048;-83
2022/03/31 09:39:04;;;;;;;23.77;10.75;;;;;;;18.08;50.16;99840.53;5071813;28;20444;-84
2022/03/31 09:41:31;;;;;;;30.05;11.07;;;;;;;18.17;50.94;99836.22;5088256;28;20066;-86
2022/03/31 09:43:58;;;;;;;26.85;10.80;;;;;;;18.14;51.05;99836.53;5056267;28;20027;-85
2022/03/31 09:46:24;;;;;;;26.95;11.38;;;;;;;18.05;52.37;99832.97;5073623;28;20485;-86
2022/03/31 09:48:51;;;;;;;25.80;10.85;;;;;;;18.02;51.58;99839.31;5086578;28;20056;-85
2022/03/31 09:51:17;;;;;;;28.33;11.20;;;;;;;17.99;53.03;99823.03;5070966;28;20547;-86
2022/03/31 09:53:42;;;;;;;24.00;11.05;;;;;;;18.00;52.58;99815.09;5038091;28;20021;-84
2022/03/31 09:56:08;;;;;;;26.27;11.43;;;;;;;18.16;52.49;99831.97;5071366;28;20084;-81
2022/03/31 09:58:37;;;;;;;29.02;11.20;;;;;;;17.98;51.53;99821.41;5053790;28;20132;-82
2022/03/31 10:01:03;;;;;;;27.27;10.40;;;;;;;17.92;50.95;99827.22;5082829;28;20118;-82
2022/03/31 10:03:29;;;;;;;25.98;11.00;;;;;;;17.87;52.15;99829.41;5090763;28;20028;-87
2022/03/31 10:05:55;;;;;;;28.77;10.93;;;;;;;17.92;52.60;99838.50;5072743;28;20413;-89
2022/03/31 10:08:20;;;;;;;25.70;13.73;;;;;;;17.81;51.92;99843.91;5053210;28;20581;-83
2022/03/31 10:10:46;;;;;;;23.88;9.82;;;;;;;17.67;55.03;99844.28;5070334;28;20482;-85
2022/03/31 10:13:20;;;;;;;24.50;10.63;;;;;;;17.58;55.21;99851.19;5069109;28;20028;-83
2022/03/31 10:15:46;;;;;;;30.70;12.90;;;;;;;17.46;54.96;99816.50;5053991;28;20028;-84
2022/03/31 10:18:15;;;;;;;31.15;13.27;;;;;;;17.52;57.46;99815.13;5054011;28;20074;-83
2022/03/31 10:20:52;;;;;;;35.13;14.23;;;;;;;17.24;57.97;99793.25;5053980;28;20020;-86
2022/03/31 10:26:02;;;;;;;25.30;14.52;;;;;;;17.28;60.41;99771.09;5065345;28;20039;-84
2022/03/31 10:28:27;;;;;;;30.20;13.88;;;;;;;17.28;60.14;99784.16;5091073;28;20405;-81
2022/03/31 10:31:01;;;;;;;27.00;13.52;;;;;;;17.25;61.72;99775.78;5090058;28;20028;-87
2022/03/31 10:33:44;;;;;;;27.90;13.23;;;;;;;17.23;60.82;99773.31;5073640;28;20024;-92
2022/03/31 10:36:14;;;;;;;29.05;13.82;;;;;;;17.21;61.34;99759.56;5073339;28;20032;-82
2022/03/31 10:38:54;;;;;;;30.30;16.15;;;;;;;17.21;61.07;99756.97;5054520;28;20106;-83
2022/03/31 10:41:28;;;;;;;29.23;15.57;;;;;;;17.10;60.55;99750.06;5091874;28;20035;-83
2022/03/31 10:43:57;;;;;;;30.73;16.58;;;;;;;17.06;63.33;99742.63;5072479;28;20024;-86
2022/03/31 10:46:22;;;;;;;29.55;16.20;;;;;;;17.19;63.02;99754.44;5071860;28;20035;-86
2022/03/31 10:48:52;;;;;;;31.95;16.73;;;;;;;17.19;63.97;99730.94;5054171;28;20090;-84
2022/03/31 10:51:18;;;;;;;28.48;13.82;;;;;;;17.33;61.85;99748.00;5071222;28;20024;-84
2022/03/31 10:53:47;;;;;;;27.73;13.30;;;;;;;17.22;60.90;99706.31;5071108;28;20027;-83
2022/03/31 10:56:24;;;;;;;27.27;12.85;;;;;;;17.39;60.74;99716.03;5071457;28;20115;-86
2022/03/31 10:58:50;;;;;;;30.67;12.82;;;;;;;17.33;60.83;99716.63;5071604;28;20056;-87
2022/03/31 11:01:16;;;;;;;28.83;12.15;;;;;;;17.25;60.33;99713.88;5054088;28;20039;-84
2022/03/31 11:03:42;;;;;;;26.35;12.43;;;;;;;17.40;59.75;99727.31;5087685;28;20028;-83
2022/03/31 11:06:11;;;;;;;27.77;12.23;;;;;;;17.35;59.33;99725.16;5068718;28;20032;-84
2022/03/31 11:08:47;;;;;;;28.90;13.40;;;;;;;17.54;60.04;99734.75;5051377;28;20123;-82
2022/03/31 11:11:27;;;;;;;40.35;24.73;;;;;;;17.54;60.37;99728.69;5052780;28;20417;-83
2022/03/31 11:13:55;;;;;;;24.95;11.45;;;;;;;17.54;60.16;99723.47;5052741;28;20493;-85
2022/03/31 11:16:21;;;;;;;21.58;9.70;;;;;;;17.53;59.10;99727.03;5036639;28;20035;-83
2022/03/31 11:18:56;;;;;;;23.05;10.10;;;;;;;17.72;59.79;99734.88;5035944;28;20107;-82
2022/03/31 11:21:23;;;;;;;23.95;9.70;;;;;;;17.67;57.98;99719.56;5069619;28;20024;-85
2022/03/31 11:23:49;;;;;;;23.80;9.55;;;;;;;17.74;58.97;99725.91;5052144;28;20098;-84
2022/03/31 11:26:30;;;;;;;22.02;9.05;;;;;;;17.76;58.63;99717.91;5067674;28;20482;-83
2022/03/31 11:28:56;;;;;;;26.08;9.82;;;;;;;17.79;58.68;99709.78;5053195;28;20086;-82
2022/03/31 11:31:22;;;;;;;31.83;10.27;;;;;;;17.86;58.89;99696.94;5068862;28;20028;-84
2022/03/31 11:33:48;;;;;;;23.23;8.90;;;;;;;17.90;57.53;99699.16;5057948;28;20557;-82
2022/03/31 11:36:14;;;;;;;28.55;8.82;;;;;;;17.98;58.21;99691.38;5070396;28;20016;-83
2022/03/31 11:38:39;;;;;;;21.95;8.15;;;;;;;18.05;58.00;99691.63;5081505;28;20791;-83
2022/03/31 11:41:05;;;;;;;23.40;9.10;;;;;;;17.93;58.72;99677.91;5071831;28;20029;-84
2022/03/31 11:43:31;;;;;;;31.60;14.32;;;;;;;18.04;57.56;99669.88;5051190;28;20025;-84
2022/03/31 11:45:57;;;;;;;27.60;10.50;;;;;;;18.12;58.06;99663.09;5068792;28;20043;-83
2022/03/31 11:48:35;;;;;;;19.50;8.40;;;;;;;18.12;58.40;99673.56;5068689;28;20036;-84
2022/03/31 11:51:05;;;;;;;25.85;8.05;;;;;;;18.22;57.24;99687.41;5082285;28;20099;-84
2022/03/31 11:53:41;;;;;;;21.95;8.25;;;;;;;18.23;56.73;99694.28;5072394;28;20043;-83
2022/03/31 11:56:16;;;;;;;24.02;8.40;;;;;;;18.23;56.56;99699.53;5089132;28;20106;-82
2022/03/31 11:58:50;;;;;;;22.33;8.35;;;;;;;18.23;55.79;99694.28;5089248;28;20032;-80
2022/03/31 12:01:51;;;;;;;28.65;7.93;;;;;;;18.35;56.95;99708.81;5073112;28;20448;-85
2022/03/31 12:04:24;;;;;;;21.25;7.00;;;;;;;18.29;55.69;99689.31;5050478;28;20051;-83
2022/03/31 12:06:51;;;;;;;20.73;7.03;;;;;;;18.34;55.11;99696.72;5080897;28;20990;-81
2022/03/31 12:09:17;;;;;;;29.08;7.25;;;;;;;18.29;55.42;99667.53;5065247;28;20052;-81
2022/03/31 12:11:42;;;;;;;22.25;7.07;;;;;;;18.36;56.15;99679.06;5068741;28;20055;-88
2022/03/31 12:14:10;;;;;;;20.17;7.10;;;;;;;18.29;55.47;99699.78;5074547;28;20097;-84
2022/03/31 12:16:42;;;;;;;20.58;6.68;;;;;;;18.32;55.18;99690.81;5072892;28;20036;-84
2022/03/31 12:19:08;;;;;;;23.20;7.78;;;;;;;18.25;55.43;99689.72;5089975;28;20032;-85
2022/03/31 12:21:33;;;;;;;18.15;6.18;;;;;;;18.28;56.12;99692.06;5071985;28;20035;-84
2022/03/31 12:24:02;;;;;;;24.48;6.97;;;;;;;18.30;55.36;99693.56;5089008;28;20409;-83
